createdAt,value
2019-04-19T00:00:03.423Z,0.00
2019-04-19T00:01:04.845Z,0.00
2019-04-19T00:02:07.319Z,0.00
2019-04-19T00:03:00.905Z,0.00
2019-04-19T00:04:05.023Z,0.00
2019-04-19T00:05:03.531Z,0.00
2019-04-19T00:06:05.948Z,0.00
2019-04-19T00:07:09.810Z,0.00
2019-04-19T00:08:17.002Z,0.00
2019-04-19T00:09:16.689Z,0.00
2019-04-19T00:10:12.541Z,0.00
2019-04-19T00:11:11.687Z,0.00
2019-04-19T00:12:14.619Z,0.00
2019-04-19T00:13:04.277Z,0.00
2019-04-19T00:14:01.924Z,0.00
2019-04-19T00:15:01.379Z,0.00
2019-04-19T00:16:00.600Z,0.00
2019-04-19T00:17:01.639Z,0.00
2019-04-19T00:18:06.076Z,0.00
2019-04-19T00:19:26.734Z,0.00
2019-04-19T00:20:25.620Z,0.00
2019-04-19T00:21:18.306Z,0.00
2019-04-19T00:22:21.030Z,0.00
2019-04-19T00:23:10.151Z,0.00
2019-04-19T00:24:01.643Z,0.00
2019-04-19T00:25:00.755Z,0.00
2019-04-19T00:26:00.373Z,0.00
2019-04-19T00:27:02.050Z,0.00
2019-04-19T00:28:02.321Z,0.00
2019-04-19T00:29:04.164Z,0.00
2019-04-19T00:30:13.893Z,0.00
2019-04-19T00:31:17.138Z,0.00
2019-04-19T00:32:20.696Z,0.00
2019-04-19T00:33:59.133Z,0.00
2019-04-19T00:34:56.768Z,0.00
2019-04-19T00:36:59.521Z,0.00
2019-04-19T00:38:00.549Z,0.00
2019-04-19T00:40:11.959Z,0.00
2019-04-19T00:41:03.096Z,0.00
2019-04-19T00:43:01.603Z,0.00
2019-04-19T00:44:05.488Z,0.00
2019-04-19T00:46:01.147Z,0.00
2019-04-19T00:47:02.525Z,0.00
2019-04-19T00:48:52.446Z,0.00
2019-04-19T00:49:55.399Z,0.00
2019-04-19T00:51:43.121Z,0.00
2019-04-19T00:52:55.716Z,0.00
2019-04-19T00:54:23.030Z,0.00
2019-04-19T00:55:21.633Z,0.00
2019-04-19T00:57:19.241Z,0.00
2019-04-19T00:58:16.316Z,0.00
2019-04-19T01:00:20.175Z,0.00
2019-04-19T01:01:18.055Z,0.00
2019-04-19T01:03:06.309Z,0.00
2019-04-19T01:04:15.641Z,0.00
2019-04-19T01:06:07.778Z,0.00
2019-04-19T01:07:04.150Z,0.00
2019-04-19T01:09:11.906Z,0.00
2019-04-19T01:10:13.515Z,0.00
2019-04-19T01:12:05.625Z,0.00
2019-04-19T01:13:05.732Z,0.00
2019-04-19T01:15:05.753Z,0.00
2019-04-19T01:16:01.314Z,0.00
2019-04-19T01:18:00.466Z,0.00
2019-04-19T01:18:54.004Z,0.00
2019-04-19T01:19:50.935Z,0.00
2019-04-19T01:20:45.986Z,0.00
2019-04-19T01:21:45.213Z,0.00
2019-04-19T01:22:49.009Z,0.00
2019-04-19T01:23:48.180Z,0.00
2019-04-19T01:24:47.962Z,0.00
2019-04-19T01:25:52.446Z,0.00
2019-04-19T01:26:48.675Z,0.00
2019-04-19T01:27:45.071Z,0.00
2019-04-19T01:28:55.705Z,0.00
2019-04-19T01:29:48.708Z,0.00
2019-04-19T01:30:46.541Z,0.00
2019-04-19T01:31:49.550Z,0.00
2019-04-19T01:32:50.337Z,0.00
2019-04-19T01:33:46.419Z,0.00
2019-04-19T01:34:46.668Z,0.00
2019-04-19T01:35:49.664Z,0.00
2019-04-19T01:36:47.984Z,0.00
2019-04-19T01:37:49.423Z,0.00
2019-04-19T01:38:51.343Z,0.00
2019-04-19T01:40:00.691Z,0.00
2019-04-19T01:41:03.189Z,0.00
2019-04-19T01:41:55.119Z,0.00
2019-04-19T01:43:01.914Z,0.00
2019-04-19T01:44:02.244Z,0.00
2019-04-19T01:45:02.859Z,0.00
2019-04-19T01:45:58.295Z,0.00
2019-04-19T01:47:03.122Z,0.00
2019-04-19T01:47:58.743Z,0.00
2019-04-19T01:48:56.819Z,0.00
2019-04-19T01:49:59.661Z,0.00
2019-04-19T01:51:04.630Z,0.00
2019-04-19T01:52:04.244Z,0.00
2019-04-19T01:53:03.606Z,0.00
2019-04-19T01:54:03.110Z,0.00
2019-04-19T01:54:54.371Z,0.00
2019-04-19T01:55:46.103Z,0.00
2019-04-19T01:56:48.295Z,0.00
2019-04-19T01:57:45.123Z,0.00
2019-04-19T01:58:51.793Z,0.00
2019-04-19T01:59:49.159Z,0.00
2019-04-19T02:00:49.460Z,0.00
2019-04-19T02:01:44.254Z,0.00
2019-04-19T02:02:50.187Z,0.00
2019-04-19T02:03:47.948Z,0.00
2019-04-19T02:04:45.463Z,0.00
2019-04-19T02:05:52.184Z,0.00
2019-04-19T02:06:46.696Z,0.00
2019-04-19T02:07:44.634Z,0.00
2019-04-19T02:08:49.404Z,0.00
2019-04-19T02:10:00.288Z,0.00
2019-04-19T02:10:52.900Z,0.00
2019-04-19T02:11:53.557Z,0.00
2019-04-19T02:12:51.305Z,0.00
2019-04-19T02:13:53.155Z,0.00
2019-04-19T02:14:53.868Z,0.00
2019-04-19T02:15:48.678Z,0.00
2019-04-19T02:16:49.603Z,0.00
2019-04-19T02:17:48.335Z,0.00
2019-04-19T02:18:45.004Z,0.00
2019-04-19T02:19:52.514Z,0.00
2019-04-19T02:20:47.534Z,0.00
2019-04-19T02:21:45.967Z,0.00
2019-04-19T02:22:44.218Z,0.00
2019-04-19T02:23:49.681Z,0.00
2019-04-19T02:24:47.772Z,0.00
2019-04-19T02:25:43.693Z,0.00
2019-04-19T02:26:50.042Z,0.00
2019-04-19T02:27:46.938Z,0.00
2019-04-19T02:28:44.687Z,0.00
2019-04-19T02:29:49.870Z,0.00
2019-04-19T02:30:58.271Z,0.00
2019-04-19T02:32:26.689Z,0.00
2019-04-19T02:33:09.517Z,0.00
2019-04-19T02:34:14.144Z,0.00
2019-04-19T02:35:11.457Z,0.00
2019-04-19T02:36:17.882Z,0.00
2019-04-19T02:39:13.717Z,0.00
2019-04-19T02:43:06.495Z,0.00
2019-04-19T02:44:27.155Z,0.00
2019-04-19T02:46:23.472Z,0.00
2019-04-19T02:48:10.992Z,0.00
2019-04-19T02:49:20.075Z,0.00
2019-04-19T02:50:35.890Z,0.00
2019-04-19T02:53:10.634Z,0.00
2019-04-19T02:54:11.791Z,0.00
2019-04-19T02:55:09.396Z,0.00
2019-04-19T02:56:12.921Z,0.00
2019-04-19T02:57:15.975Z,0.00
2019-04-19T02:58:07.591Z,0.00
2019-04-19T02:59:21.276Z,0.00
2019-04-19T03:02:14.040Z,0.00
2019-04-19T03:03:07.809Z,0.00
2019-04-19T03:04:24.465Z,0.00
2019-04-19T03:05:23.022Z,0.00
2019-04-19T03:06:02.445Z,0.00
2019-04-19T03:06:50.576Z,0.00
2019-04-19T03:07:45.536Z,0.00
2019-04-19T03:08:42.632Z,0.00
2019-04-19T03:09:44.061Z,0.00
2019-04-19T03:10:57.022Z,0.00
2019-04-19T03:11:56.556Z,0.00
2019-04-19T03:12:58.560Z,0.00
2019-04-19T03:13:58.076Z,0.00
2019-04-19T03:15:00.626Z,0.00
2019-04-19T03:15:58.262Z,0.00
2019-04-19T03:17:04.971Z,0.00
2019-04-19T03:18:08.812Z,0.00
2019-04-19T03:18:59.646Z,0.00
2019-04-19T03:19:54.906Z,0.00
2019-04-19T03:20:54.079Z,0.00
2019-04-19T03:21:56.306Z,0.00
2019-04-19T03:23:01.343Z,0.00
2019-04-19T03:24:00.232Z,0.00
2019-04-19T03:25:03.568Z,0.00
2019-04-19T03:25:54.417Z,0.00
2019-04-19T03:26:56.215Z,0.00
2019-04-19T03:27:55.329Z,0.00
2019-04-19T03:28:47.692Z,0.00
2019-04-19T03:29:46.704Z,0.00
2019-04-19T03:31:08.423Z,0.00
2019-04-19T03:32:24.033Z,0.00
2019-04-19T03:33:15.157Z,0.00
2019-04-19T03:34:15.282Z,0.00
2019-04-19T03:35:59.463Z,0.00
2019-04-19T03:36:55.145Z,0.00
2019-04-19T03:38:02.666Z,0.00
2019-04-19T03:39:10.017Z,0.00
2019-04-19T03:40:06.276Z,0.00
2019-04-19T03:41:06.617Z,0.00
2019-04-19T03:42:54.810Z,0.00
2019-04-19T03:43:56.652Z,0.00
2019-04-19T03:45:01.685Z,4.00
2019-04-19T03:46:05.143Z,0.00
2019-04-19T03:47:04.382Z,4.00
2019-04-19T03:48:07.683Z,4.00
2019-04-19T03:48:56.162Z,8.00
2019-04-19T03:49:57.302Z,8.00
2019-04-19T03:51:04.983Z,8.00
2019-04-19T03:52:20.121Z,8.00
2019-04-19T03:53:03.261Z,12.00
2019-04-19T03:54:00.497Z,16.00
2019-04-19T03:54:56.065Z,16.00
2019-04-19T03:56:06.217Z,20.00
2019-04-19T03:56:56.212Z,20.00
2019-04-19T03:57:51.488Z,28.00
2019-04-19T03:58:41.785Z,32.00
2019-04-19T03:59:41.541Z,40.00
2019-04-19T04:00:41.381Z,44.00
2019-04-19T04:01:46.402Z,52.00
2019-04-19T04:02:45.871Z,60.00
2019-04-19T04:03:44.903Z,72.00
2019-04-19T04:04:48.416Z,80.00
2019-04-19T04:05:45.992Z,96.00
2019-04-19T04:06:44.217Z,112.00
2019-04-19T04:07:41.308Z,128.00
2019-04-19T04:08:48.545Z,148.00
2019-04-19T04:09:47.336Z,164.00
2019-04-19T04:10:45.243Z,188.00
2019-04-19T04:11:53.212Z,212.00
2019-04-19T04:12:49.583Z,240.00
2019-04-19T04:13:56.651Z,268.00
2019-04-19T04:14:57.885Z,304.00
2019-04-19T04:15:54.034Z,336.00
2019-04-19T04:16:45.906Z,372.00
2019-04-19T04:17:41.538Z,412.00
2019-04-19T04:18:40.952Z,456.00
2019-04-19T04:19:41.691Z,500.00
2019-04-19T04:20:43.702Z,544.00
2019-04-19T04:21:46.337Z,596.00
2019-04-19T04:22:44.083Z,652.00
2019-04-19T04:23:44.308Z,704.00
2019-04-19T04:24:53.446Z,760.00
2019-04-19T04:25:48.408Z,824.00
2019-04-19T04:26:52.759Z,884.00
2019-04-19T04:27:55.646Z,948.00
2019-04-19T04:28:53.015Z,1012.00
2019-04-19T04:29:51.849Z,1080.00
2019-04-19T04:30:51.683Z,1148.00
2019-04-19T04:31:53.366Z,1220.00
2019-04-19T04:32:55.932Z,1292.00
2019-04-19T04:33:52.740Z,1372.00
2019-04-19T04:34:51.317Z,1456.00
2019-04-19T04:35:53.322Z,1548.00
2019-04-19T04:36:54.610Z,1640.00
2019-04-19T04:37:52.505Z,1728.00
2019-04-19T04:38:44.299Z,1820.00
2019-04-19T04:39:40.656Z,1904.00
2019-04-19T04:40:40.443Z,1992.00
2019-04-19T04:41:42.890Z,2084.00
2019-04-19T04:42:57.051Z,2176.00
2019-04-19T04:43:55.578Z,2264.00
2019-04-19T04:45:09.026Z,2356.00
2019-04-19T04:46:11.241Z,2448.00
2019-04-19T04:47:04.685Z,2536.00
2019-04-19T04:47:56.153Z,2632.00
2019-04-19T04:48:58.277Z,2720.00
2019-04-19T04:50:02.228Z,2820.00
2019-04-19T04:51:00.011Z,2908.00
2019-04-19T04:51:54.753Z,3000.00
2019-04-19T04:52:42.917Z,3092.00
2019-04-19T04:53:40.828Z,3192.00
2019-04-19T04:54:41.028Z,3284.00
2019-04-19T04:55:44.985Z,3376.00
2019-04-19T04:56:50.812Z,3472.00
2019-04-19T04:57:48.901Z,3580.00
2019-04-19T04:58:43.783Z,3756.00
2019-04-19T04:59:45.345Z,3980.00
2019-04-19T05:00:48.453Z,4040.00
2019-04-19T05:01:51.588Z,4000.00
2019-04-19T05:02:58.511Z,4156.00
2019-04-19T05:03:58.086Z,4272.00
2019-04-19T05:04:54.722Z,4528.00
2019-04-19T05:06:05.294Z,4568.00
2019-04-19T05:06:57.849Z,4492.00
2019-04-19T05:08:03.223Z,4784.00
2019-04-19T05:08:56.988Z,4908.00
2019-04-19T05:10:04.650Z,4860.00
2019-04-19T05:10:56.827Z,4792.00
2019-04-19T05:12:09.139Z,4844.00
2019-04-19T05:13:16.410Z,4940.00
2019-04-19T05:14:00.400Z,5044.00
2019-04-19T05:14:53.495Z,5448.00
2019-04-19T05:16:19.398Z,6260.00
2019-04-19T05:17:58.300Z,7384.00
2019-04-19T05:18:50.949Z,8432.00
2019-04-19T05:20:44.394Z,12992.00
2019-04-19T05:21:40.132Z,12768.00
2019-04-19T05:23:33.153Z,16096.00
2019-04-19T05:24:47.337Z,15104.00
2019-04-19T05:26:48.149Z,15104.00
2019-04-19T05:27:40.240Z,16096.00
2019-04-19T05:28:33.757Z,18720.00
2019-04-19T05:29:22.945Z,17120.00
2019-04-19T05:30:15.382Z,13516.00
2019-04-19T05:31:24.786Z,14496.00
2019-04-19T05:32:23.390Z,15552.00
2019-04-19T05:33:26.763Z,12960.00
2019-04-19T05:34:36.409Z,12532.00
2019-04-19T05:35:27.477Z,15552.00
2019-04-19T05:36:34.967Z,19392.00
2019-04-19T05:37:35.133Z,21920.00
2019-04-19T05:38:37.646Z,23808.00
2019-04-19T05:39:37.204Z,19232.00
2019-04-19T05:40:29.031Z,17728.00
2019-04-19T05:41:31.083Z,19520.00
2019-04-19T05:42:37.188Z,17952.00
2019-04-19T05:43:52.925Z,19328.00
2019-04-19T05:45:01.735Z,23456.00
2019-04-19T05:45:36.734Z,26368.00
2019-04-19T05:46:37.754Z,25856.00
2019-04-19T05:47:31.208Z,25856.00
2019-04-19T05:48:28.472Z,21792.00
2019-04-19T05:49:26.302Z,16928.00
2019-04-19T05:50:35.626Z,15712.00
2019-04-19T05:51:41.413Z,15808.00
2019-04-19T05:52:34.603Z,13028.00
2019-04-19T05:53:25.733Z,12416.00
2019-04-19T05:54:16.706Z,12768.00
2019-04-19T05:55:16.850Z,12256.00
2019-04-19T05:56:15.673Z,12100.00
2019-04-19T05:57:37.118Z,12236.00
2019-04-19T05:58:24.344Z,12364.00
2019-04-19T05:59:23.201Z,12256.00
2019-04-19T06:00:28.483Z,12280.00
2019-04-19T06:01:39.488Z,12424.00
2019-04-19T06:02:24.356Z,12528.00
2019-04-19T06:03:23.193Z,12440.00
2019-04-19T06:04:34.695Z,12368.00
2019-04-19T06:05:37.641Z,12508.00
2019-04-19T06:06:37.483Z,12832.00
2019-04-19T06:07:30.282Z,13248.00
2019-04-19T06:08:20.950Z,13644.00
2019-04-19T06:09:15.470Z,13672.00
2019-04-19T06:10:15.748Z,13536.00
2019-04-19T06:11:21.286Z,13304.00
2019-04-19T06:12:19.701Z,13116.00
2019-04-19T06:13:17.080Z,13120.00
2019-04-19T06:14:41.092Z,13224.00
2019-04-19T06:15:37.135Z,13424.00
2019-04-19T06:16:30.406Z,13656.00
2019-04-19T06:17:30.849Z,13808.00
2019-04-19T06:18:28.397Z,13884.00
2019-04-19T06:19:31.389Z,13908.00
2019-04-19T06:20:30.259Z,13936.00
2019-04-19T06:21:34.035Z,14048.00
2019-04-19T06:22:35.822Z,14224.00
2019-04-19T06:23:40.026Z,14412.00
2019-04-19T06:24:33.977Z,14680.00
2019-04-19T06:25:44.502Z,14912.00
2019-04-19T06:26:54.351Z,15088.00
2019-04-19T06:27:43.844Z,15280.00
2019-04-19T06:28:37.932Z,15424.00
2019-04-19T06:29:39.333Z,15620.00
2019-04-19T06:30:30.348Z,15772.00
2019-04-19T06:31:37.854Z,15952.00
2019-04-19T06:32:33.943Z,16092.00
2019-04-19T06:33:32.363Z,16232.00
2019-04-19T06:34:34.872Z,16388.00
2019-04-19T06:35:23.937Z,16704.00
2019-04-19T06:36:14.595Z,16832.00
2019-04-19T06:37:19.302Z,17184.00
2019-04-19T06:38:13.965Z,17504.00
2019-04-19T06:39:14.213Z,17632.00
2019-04-19T06:40:21.165Z,17600.00
2019-04-19T06:41:18.590Z,17824.00
2019-04-19T06:42:15.684Z,17856.00
2019-04-19T06:43:20.310Z,17792.00
2019-04-19T06:44:33.726Z,17888.00
2019-04-19T06:45:32.298Z,18080.00
2019-04-19T06:46:30.363Z,18272.00
2019-04-19T06:47:21.836Z,18528.00
2019-04-19T06:48:18.545Z,18784.00
2019-04-19T06:49:21.176Z,18976.00
2019-04-19T06:50:15.193Z,19616.00
2019-04-19T06:51:24.309Z,22560.00
2019-04-19T06:52:20.933Z,30240.00
2019-04-19T06:53:14.564Z,40896.00
2019-04-19T06:54:15.521Z,48032.00
2019-04-19T06:55:21.226Z,50848.00
2019-04-19T06:56:20.892Z,57280.00
2019-04-19T06:57:21.806Z,64768.00
2019-04-19T06:58:19.379Z,66880.00
2019-04-19T06:59:21.261Z,65696.00
2019-04-19T07:00:26.109Z,62816.00
2019-04-19T07:01:25.549Z,61952.00
2019-04-19T07:02:13.797Z,64160.00
2019-04-19T07:03:14.787Z,68608.00
2019-04-19T07:04:14.789Z,70784.00
2019-04-19T07:05:27.694Z,71136.00
2019-04-19T07:06:28.441Z,69088.00
2019-04-19T07:07:29.999Z,67008.00
2019-04-19T07:09:37.567Z,70272.00
2019-04-19T07:11:33.167Z,68672.00
2019-04-19T07:12:34.344Z,66816.00
2019-04-19T07:13:27.469Z,71200.00
2019-04-19T07:14:19.701Z,77696.00
2019-04-19T07:16:35.985Z,71328.00
2019-04-19T07:17:30.763Z,71488.00
2019-04-19T07:18:28.976Z,74752.00
2019-04-19T07:19:34.676Z,75264.00
2019-04-19T07:20:26.580Z,72896.00
2019-04-19T07:21:33.545Z,69440.00
2019-04-19T07:22:33.757Z,70208.00
2019-04-19T07:23:34.246Z,74176.00
2019-04-19T07:24:39.247Z,78976.00
2019-04-19T07:25:39.517Z,78496.00
2019-04-19T07:26:33.843Z,76288.00
2019-04-19T07:27:28.487Z,76768.00
2019-04-19T07:28:20.156Z,78080.00
2019-04-19T07:29:14.576Z,78144.00
2019-04-19T07:30:13.865Z,77728.00
2019-04-19T07:31:14.808Z,79552.00
2019-04-19T07:32:17.792Z,86464.00
2019-04-19T07:33:23.432Z,88064.00
2019-04-19T07:34:33.176Z,83200.00
2019-04-19T07:35:35.067Z,80032.00
2019-04-19T07:36:39.023Z,81952.00
2019-04-19T07:38:37.253Z,74080.00
2019-04-19T07:39:27.940Z,68896.00
2019-04-19T07:41:26.763Z,86912.00
2019-04-19T07:42:34.780Z,91296.00
2019-04-19T07:43:28.454Z,83968.00
2019-04-19T07:44:21.323Z,76832.00
2019-04-19T07:45:18.774Z,75872.00
2019-04-19T07:46:31.105Z,80256.00
2019-04-19T07:47:28.066Z,86240.00
2019-04-19T07:48:18.403Z,90912.00
2019-04-19T07:49:15.328Z,89216.00
2019-04-19T07:50:21.674Z,84032.00
2019-04-19T07:51:18.820Z,82848.00
2019-04-19T07:52:20.928Z,86912.00
2019-04-19T07:53:19.955Z,91008.00
2019-04-19T07:54:25.256Z,92832.00
2019-04-19T07:56:27.281Z,86368.00
2019-04-19T07:59:31.920Z,89344.00
2019-04-19T08:01:39.426Z,94560.00
2019-04-19T08:02:36.038Z,97248.00
2019-04-19T08:04:40.465Z,98240.00
2019-04-19T08:06:37.631Z,84864.00
2019-04-19T08:08:39.765Z,89088.00
2019-04-19T08:10:33.413Z,99520.00
2019-04-19T08:16:44.855Z,94624.00
2019-04-19T08:28:09.886Z,116800.00
2019-04-19T08:29:06.334Z,111072.00
2019-04-19T08:31:01.843Z,99136.00
2019-04-19T08:31:55.423Z,96640.00
2019-04-19T08:33:56.408Z,100448.00
2019-04-19T08:35:02.866Z,101440.00
2019-04-19T08:36:59.414Z,98944.00
2019-04-19T08:38:00.570Z,103552.00
2019-04-19T08:40:16.299Z,98944.00
2019-04-19T08:41:04.832Z,95712.00
2019-04-19T08:42:56.738Z,85120.00
2019-04-19T08:43:55.275Z,81824.00
2019-04-19T08:45:34.480Z,94080.00
2019-04-19T08:46:34.699Z,97952.00
2019-04-19T08:48:39.363Z,111264.00
2019-04-19T08:49:37.244Z,120224.00
2019-04-19T08:50:30.893Z,120928.00
2019-04-19T08:51:33.741Z,117696.00
2019-04-19T08:52:33.647Z,115168.00
2019-04-19T08:53:42.781Z,109344.00
2019-04-19T08:54:53.550Z,107648.00
2019-04-19T08:55:49.189Z,114432.00
2019-04-19T08:56:41.900Z,121728.00
2019-04-19T08:57:32.473Z,121216.00
2019-04-19T08:58:44.825Z,116832.00
2019-04-19T09:00:08.229Z,110432.00
2019-04-19T09:01:00.402Z,104704.00
2019-04-19T09:01:50.708Z,103840.00
2019-04-19T09:02:45.339Z,104768.00
2019-04-19T09:03:54.046Z,108768.00
2019-04-19T09:04:50.955Z,112192.00
2019-04-19T09:05:53.785Z,115360.00
2019-04-19T09:07:51.232Z,109952.00
2019-04-19T09:08:45.927Z,110752.00
2019-04-19T09:10:01.652Z,117248.00
2019-04-19T09:10:53.202Z,125152.00
2019-04-19T09:11:49.831Z,128256.00
2019-04-19T09:12:55.651Z,128288.00
2019-04-19T09:13:49.334Z,118688.00
2019-04-19T09:14:51.930Z,110240.00
2019-04-19T09:15:53.602Z,111776.00
2019-04-19T09:16:59.441Z,122272.00
2019-04-19T09:18:14.388Z,130784.00
2019-04-19T09:18:55.693Z,123072.00
2019-04-19T09:20:52.123Z,113536.00
2019-04-19T09:21:42.925Z,126432.00
2019-04-19T09:22:49.064Z,144576.00
2019-04-19T09:24:37.468Z,141408.00
2019-04-19T09:25:36.125Z,118464.00
2019-04-19T09:26:42.510Z,101824.00
2019-04-19T09:27:49.854Z,92992.00
2019-04-19T09:29:45.068Z,129632.00
2019-04-19T09:30:41.124Z,145312.00
2019-04-19T09:31:38.492Z,144096.00
2019-04-19T09:32:28.633Z,130336.00
2019-04-19T09:33:29.529Z,122848.00
2019-04-19T09:34:26.200Z,119872.00
2019-04-19T09:35:24.183Z,121888.00
2019-04-19T09:36:31.665Z,119232.00
2019-04-19T09:37:40.045Z,121792.00
2019-04-19T09:38:39.711Z,127424.00
2019-04-19T09:39:39.770Z,135712.00
2019-04-19T09:40:41.639Z,126528.00
2019-04-19T09:42:38.863Z,121984.00
2019-04-19T09:43:31.055Z,125568.00
2019-04-19T09:45:12.614Z,135136.00
2019-04-19T09:46:12.580Z,130784.00
2019-04-19T09:48:13.662Z,129088.00
2019-04-19T09:49:20.009Z,125824.00
2019-04-19T09:51:16.955Z,125152.00
2019-04-19T09:52:20.634Z,129312.00
2019-04-19T09:53:25.868Z,125504.00
2019-04-19T09:54:22.648Z,122368.00
2019-04-19T09:55:23.553Z,126688.00
2019-04-19T09:56:17.340Z,133312.00
2019-04-19T09:57:20.892Z,126336.00
2019-04-19T09:58:16.919Z,118304.00
2019-04-19T09:59:10.287Z,111904.00
2019-04-19T10:00:07.943Z,114144.00
2019-04-19T10:00:59.914Z,122240.00
2019-04-19T10:02:02.041Z,129408.00
2019-04-19T10:03:04.857Z,134560.00
2019-04-19T10:04:01.393Z,128768.00
2019-04-19T10:04:58.864Z,117248.00
2019-04-19T10:05:59.454Z,106816.00
2019-04-19T10:06:58.717Z,101888.00
2019-04-19T10:07:59.675Z,115360.00
2019-04-19T10:08:58.710Z,127520.00
2019-04-19T10:10:03.120Z,139744.00
2019-04-19T10:10:58.865Z,143552.00
2019-04-19T10:11:59.540Z,137664.00
2019-04-19T10:12:58.666Z,127552.00
2019-04-19T10:13:58.660Z,121024.00
2019-04-19T10:14:59.760Z,124736.00
2019-04-19T10:15:58.643Z,127136.00
2019-04-19T10:16:58.635Z,120352.00
2019-04-19T10:17:58.702Z,111648.00
2019-04-19T10:19:03.098Z,103968.00
2019-04-19T10:19:58.605Z,103936.00
2019-04-19T10:20:58.785Z,113824.00
2019-04-19T10:21:58.601Z,132192.00
2019-04-19T10:23:00.872Z,143872.00
2019-04-19T10:24:00.774Z,139584.00
2019-04-19T10:24:58.931Z,122592.00
2019-04-19T10:26:04.191Z,116224.00
2019-04-19T10:26:58.878Z,116256.00
2019-04-19T10:27:58.552Z,119232.00
2019-04-19T10:28:58.641Z,130368.00
2019-04-19T10:29:59.814Z,142304.00
2019-04-19T10:30:58.889Z,151584.00
2019-04-19T10:31:58.523Z,148352.00
2019-04-19T10:32:58.520Z,138816.00
2019-04-19T10:34:01.329Z,131840.00
2019-04-19T10:34:58.911Z,130976.00
2019-04-19T10:35:58.515Z,135040.00
2019-04-19T10:36:59.973Z,138496.00
2019-04-19T10:37:59.695Z,138816.00
2019-04-19T10:38:59.393Z,134464.00
2019-04-19T10:39:59.523Z,128672.00
2019-04-19T10:40:59.650Z,122944.00
2019-04-19T10:41:58.600Z,126208.00
2019-04-19T10:42:58.963Z,132192.00
2019-04-19T10:44:04.236Z,137216.00
2019-04-19T10:44:58.443Z,140384.00
2019-04-19T10:45:58.426Z,139232.00
2019-04-19T10:46:58.760Z,135072.00
2019-04-19T10:47:58.410Z,130816.00
2019-04-19T10:49:08.394Z,130240.00
2019-04-19T10:50:14.478Z,131872.00
2019-04-19T10:50:59.513Z,133088.00
2019-04-19T10:51:58.521Z,132672.00
2019-04-19T10:52:58.576Z,129440.00
2019-04-19T10:53:58.373Z,126784.00
2019-04-19T10:54:59.432Z,123392.00
2019-04-19T10:55:58.361Z,117888.00
2019-04-19T10:56:58.588Z,114112.00
2019-04-19T10:57:58.920Z,119296.00
2019-04-19T10:58:58.732Z,126752.00
2019-04-19T10:59:58.632Z,130368.00
2019-04-19T11:00:58.332Z,125856.00
2019-04-19T11:01:58.314Z,124736.00
2019-04-19T11:02:58.980Z,124736.00
2019-04-19T11:03:59.120Z,125440.00
2019-04-19T11:04:58.743Z,127328.00
2019-04-19T11:05:58.726Z,126368.00
2019-04-19T11:06:58.292Z,124768.00
2019-04-19T11:07:59.281Z,124256.00
2019-04-19T11:08:58.424Z,123456.00
2019-04-19T11:09:58.272Z,124448.00
2019-04-19T11:10:58.285Z,123904.00
2019-04-19T11:11:59.566Z,125568.00
2019-04-19T11:12:58.695Z,122400.00
2019-04-19T11:13:58.290Z,121824.00
2019-04-19T11:15:10.796Z,127200.00
2019-04-19T11:16:53.507Z,129728.00
2019-04-19T11:18:01.442Z,132256.00
2019-04-19T11:20:01.040Z,129504.00
2019-04-19T11:20:51.787Z,125888.00
2019-04-19T11:22:40.177Z,125248.00
2019-04-19T11:23:40.143Z,124448.00
2019-04-19T11:25:33.398Z,128032.00
2019-04-19T11:26:33.025Z,132192.00
2019-04-19T11:28:27.013Z,127392.00
2019-04-19T11:29:26.045Z,122400.00
2019-04-19T11:31:19.094Z,117760.00
2019-04-19T11:32:19.884Z,124928.00
2019-04-19T11:34:13.141Z,147392.00
2019-04-19T11:35:11.810Z,144000.00
2019-04-19T11:37:05.644Z,116800.00
2019-04-19T11:38:06.897Z,113088.00
2019-04-19T11:39:05.597Z,114432.00
2019-04-19T11:40:06.877Z,118176.00
2019-04-19T11:41:05.606Z,118304.00
2019-04-19T11:42:05.580Z,116672.00
2019-04-19T11:43:05.576Z,112928.00
2019-04-19T11:44:13.927Z,112032.00
2019-04-19T11:45:05.815Z,117984.00
2019-04-19T11:46:06.302Z,128928.00
2019-04-19T11:47:06.828Z,145056.00
2019-04-19T11:48:05.538Z,153760.00
2019-04-19T11:49:05.936Z,146528.00
2019-04-19T11:50:06.041Z,129600.00
2019-04-19T11:51:05.748Z,115616.00
2019-04-19T11:52:08.107Z,109600.00
2019-04-19T11:53:06.182Z,104512.00
2019-04-19T11:54:06.189Z,103008.00
2019-04-19T11:55:06.171Z,104352.00
2019-04-19T11:56:06.666Z,105664.00
2019-04-19T11:57:07.525Z,108096.00
2019-04-19T11:58:06.387Z,113728.00
2019-04-19T11:59:06.642Z,120704.00
2019-04-19T12:00:06.142Z,127232.00
2019-04-19T12:01:05.708Z,128384.00
2019-04-19T12:02:06.100Z,123264.00
2019-04-19T12:03:06.446Z,115168.00
2019-04-19T12:04:05.967Z,106656.00
2019-04-19T12:05:12.864Z,103584.00
2019-04-19T12:06:06.586Z,108064.00
2019-04-19T12:07:06.079Z,117728.00
2019-04-19T12:08:06.525Z,131232.00
2019-04-19T12:09:06.673Z,144064.00
2019-04-19T12:10:06.092Z,148416.00
2019-04-19T12:11:06.482Z,138048.00
2019-04-19T12:12:05.536Z,124384.00
2019-04-19T12:13:06.660Z,111392.00
2019-04-19T12:14:05.962Z,107168.00
2019-04-19T12:15:06.177Z,109920.00
2019-04-19T12:16:06.230Z,109824.00
2019-04-19T12:17:05.357Z,102688.00
2019-04-19T12:18:06.272Z,97024.00
2019-04-19T12:19:13.963Z,101824.00
2019-04-19T12:21:07.346Z,123808.00
2019-04-19T12:22:07.651Z,116480.00
2019-04-19T12:23:54.983Z,82464.00
2019-04-19T12:24:55.336Z,91936.00
2019-04-19T12:25:55.511Z,106560.00
2019-04-19T12:26:55.580Z,112480.00
2019-04-19T12:27:54.354Z,103872.00
2019-04-19T12:28:55.543Z,95616.00
2019-04-19T12:29:56.542Z,99648.00
2019-04-19T12:30:57.057Z,105376.00
2019-04-19T12:31:54.582Z,103424.00
2019-04-19T12:32:55.317Z,93248.00
2019-04-19T12:33:55.435Z,94624.00
2019-04-19T12:34:55.003Z,106848.00
2019-04-19T12:35:55.009Z,124256.00
2019-04-19T12:36:55.116Z,121696.00
2019-04-19T12:37:57.454Z,108000.00
2019-04-19T12:38:54.280Z,95808.00
2019-04-19T12:39:54.818Z,99104.00
2019-04-19T12:40:54.254Z,104384.00
2019-04-19T12:41:55.428Z,104992.00
2019-04-19T12:42:54.249Z,102144.00
2019-04-19T12:43:54.241Z,105696.00
2019-04-19T12:44:54.363Z,110016.00
2019-04-19T12:45:55.500Z,110720.00
2019-04-19T12:46:55.131Z,106432.00
2019-04-19T12:47:55.255Z,98880.00
2019-04-19T12:48:54.262Z,95936.00
2019-04-19T12:50:01.117Z,98624.00
2019-04-19T12:50:54.198Z,106592.00
2019-04-19T12:51:54.443Z,109248.00
2019-04-19T12:52:54.178Z,102240.00
2019-04-19T12:53:54.221Z,92416.00
2019-04-19T12:54:54.299Z,88608.00
2019-04-19T12:55:54.151Z,91808.00
2019-04-19T12:56:54.161Z,98272.00
2019-04-19T12:57:54.200Z,102240.00
2019-04-19T12:58:54.156Z,100224.00
2019-04-19T12:59:54.151Z,95168.00
2019-04-19T13:00:54.255Z,91424.00
2019-04-19T13:01:54.133Z,90112.00
2019-04-19T13:02:54.112Z,92896.00
2019-04-19T13:03:54.743Z,99328.00
2019-04-19T13:04:54.103Z,103936.00
2019-04-19T13:05:55.314Z,101984.00
2019-04-19T13:06:54.621Z,98496.00
2019-04-19T13:07:54.124Z,97920.00
2019-04-19T13:08:54.987Z,96992.00
2019-04-19T13:09:55.086Z,93536.00
2019-04-19T13:10:54.425Z,89152.00
2019-04-19T13:11:54.851Z,91648.00
2019-04-19T13:13:09.953Z,95328.00
2019-04-19T13:14:49.347Z,103904.00
2019-04-19T13:15:48.431Z,103744.00
2019-04-19T13:17:42.287Z,93248.00
2019-04-19T13:18:42.529Z,90528.00
2019-04-19T13:20:36.931Z,94112.00
2019-04-19T13:21:34.722Z,89856.00
2019-04-19T13:22:34.715Z,89760.00
2019-04-19T13:23:34.707Z,92672.00
2019-04-19T13:24:34.698Z,90784.00
2019-04-19T13:25:35.359Z,85056.00
2019-04-19T13:26:35.606Z,86656.00
2019-04-19T13:27:43.461Z,96544.00
2019-04-19T13:28:35.410Z,98048.00
2019-04-19T13:29:35.607Z,82560.00
2019-04-19T13:30:43.253Z,72736.00